Time;durP1;ratioP1;P1;durP2;ratioP2;P2;SDS_P1;SDS_P2;PMS_P1;PMS_P2;Temp;Humidity;BMP_temperature;BMP_pressure;BME280_temperature;BME280_humidity;BME280_pressure;Samples;Min_cycle;Max_cycle;Signal;HPM_P1;HPM_P2
2022/10/30 00:00:35;;;;;;;21.27;9.35;;;;;;;14.82;84.13;101619.50;5022791;28;20557;-73
2022/10/30 00:03:00;;;;;;;14.57;8.65;;;;;;;14.86;84.29;101620.91;5029344;28;20502;-72
2022/10/30 00:05:26;;;;;;;18.38;9.68;;;;;;;14.80;84.72;101631.91;5047734;28;20028;-73
2022/10/30 00:07:54;;;;;;;17.95;8.98;;;;;;;14.82;84.71;101613.47;5047300;28;20028;-72
2022/10/30 00:10:19;;;;;;;14.75;7.93;;;;;;;14.85;84.45;101619.25;5046876;28;20095;-73
2022/10/30 00:12:45;;;;;;;18.65;9.40;;;;;;;14.80;84.46;101615.41;5048023;28;20060;-74
2022/10/30 00:15:10;;;;;;;17.42;7.50;;;;;;;14.79;84.73;101609.31;5054015;28;20053;-73
2022/10/30 00:17:36;;;;;;;18.30;9.40;;;;;;;14.72;84.96;101613.44;5042583;28;20546;-73
2022/10/30 00:20:01;;;;;;;14.88;8.07;;;;;;;14.77;84.83;101616.47;5040488;28;20416;-73
2022/10/30 00:22:27;;;;;;;16.95;10.13;;;;;;;14.64;85.01;101608.06;5041901;28;20079;-73
2022/10/30 00:24:52;;;;;;;12.32;7.72;;;;;;;14.72;85.13;101607.38;5056197;28;20025;-75
2022/10/30 00:27:18;;;;;;;17.08;10.00;;;;;;;14.68;84.74;101622.50;5049853;28;20029;-73
2022/10/30 00:29:43;;;;;;;19.73;10.02;;;;;;;14.66;85.06;101613.97;5033180;28;20654;-73
2022/10/30 00:32:08;;;;;;;19.35;7.93;;;;;;;14.70;84.92;101614.53;5031026;28;20024;-74
2022/10/30 00:34:34;;;;;;;16.55;9.18;;;;;;;14.63;85.10;101623.88;5044057;28;20322;-73
2022/10/30 00:36:59;;;;;;;13.57;9.68;;;;;;;14.57;85.20;101614.78;5039075;28;20060;-73
2022/10/30 00:39:24;;;;;;;19.23;9.38;;;;;;;14.61;85.29;101618.75;5049881;28;20056;-73
2022/10/30 00:41:50;;;;;;;14.68;8.57;;;;;;;14.63;85.35;101624.69;5047142;28;20025;-73
2022/10/30 00:44:31;;;;;;;18.13;9.70;;;;;;;14.59;85.19;101607.63;5047557;28;20389;-73
2022/10/30 00:47:03;;;;;;;13.57;8.35;;;;;;;14.61;85.28;101611.75;5051635;28;20119;-74
2022/10/30 00:49:34;;;;;;;16.38;10.77;;;;;;;14.52;85.56;101602.09;5057127;28;20043;-73
2022/10/30 00:52:02;;;;;;;16.17;8.88;;;;;;;14.60;85.19;101609.28;5053277;28;20048;-73
2022/10/30 00:54:27;;;;;;;17.07;10.83;;;;;;;14.49;85.70;101606.75;5030345;28;20053;-73
2022/10/30 00:56:53;;;;;;;14.88;8.93;;;;;;;14.54;85.61;101612.41;5041563;28;20108;-73
2022/10/30 00:59:27;;;;;;;16.23;7.85;;;;;;;14.54;85.62;101610.63;5028495;28;20037;-73
2022/10/30 01:01:53;;;;;;;14.85;9.23;;;;;;;14.44;85.65;101603.69;5041206;28;20028;-76
2022/10/30 01:04:19;;;;;;;13.68;9.35;;;;;;;14.45;85.52;101600.97;5025607;28;20357;-73
2022/10/30 01:06:50;;;;;;;17.20;9.20;;;;;;;14.48;85.40;101615.56;5039862;28;20044;-73
2022/10/30 01:09:17;;;;;;;16.10;7.75;;;;;;;14.50;85.44;101608.41;5035719;28;20036;-73
2022/10/30 01:11:42;;;;;;;14.93;7.82;;;;;;;14.44;85.79;101606.28;5042281;28;20036;-73
2022/10/30 01:14:11;;;;;;;17.65;9.63;;;;;;;14.38;85.80;101618.06;5033241;28;20049;-73
2022/10/30 01:16:39;;;;;;;17.38;9.63;;;;;;;14.35;85.90;101608.72;5037893;28;20047;-74
2022/10/30 01:19:20;;;;;;;14.45;7.15;;;;;;;14.43;85.59;101622.91;5017959;28;20444;-73
2022/10/30 01:21:50;;;;;;;13.85;8.85;;;;;;;14.35;85.76;101620.97;5053971;28;20029;-73
2022/10/30 01:24:48;;;;;;;13.88;8.30;;;;;;;14.40;85.88;101629.22;5045135;28;20553;-73
2022/10/30 01:27:38;;;;;;;17.48;10.10;;;;;;;14.34;85.77;101630.56;5006612;28;20151;-75
2022/10/30 01:30:33;;;;;;;17.55;9.57;;;;;;;14.37;86.27;101618.22;5046514;28;20035;-73
2022/10/30 01:33:14;;;;;;;20.15;9.77;;;;;;;14.29;86.51;101622.31;5039568;28;20044;-73
2022/10/30 01:35:46;;;;;;;16.30;8.88;;;;;;;14.28;86.43;101620.66;5045937;28;20513;-73
2022/10/30 01:38:20;;;;;;;16.60;10.65;;;;;;;14.18;86.50;101604.13;5049955;28;20045;-73
2022/10/30 01:40:46;;;;;;;15.57;8.43;;;;;;;14.26;86.35;101625.16;5039577;28;20484;-73
2022/10/30 01:43:11;;;;;;;14.15;8.13;;;;;;;14.24;86.15;101619.25;5033594;28;20036;-73
2022/10/30 01:46:08;;;;;;;15.18;9.60;;;;;;;14.20;86.47;101617.84;5043207;28;20308;-72
2022/10/30 01:49:12;;;;;;;13.65;8.35;;;;;;;14.25;86.36;101614.84;5042249;28;20041;-73
2022/10/30 01:51:43;;;;;;;17.90;8.95;;;;;;;14.19;86.64;101618.81;5033925;28;20069;-73
2022/10/30 01:54:27;;;;;;;14.98;7.57;;;;;;;14.24;87.00;101624.47;5045226;28;20039;-73
2022/10/30 01:57:04;;;;;;;17.50;10.32;;;;;;;14.14;87.04;101620.97;5045245;28;20032;-73
2022/10/30 01:59:37;;;;;;;18.40;11.38;;;;;;;14.11;87.23;101623.88;5046244;28;20065;-74
2022/10/30 02:02:03;;;;;;;17.27;8.45;;;;;;;14.12;86.81;101614.25;5048563;28;20052;-74
2022/10/30 02:04:29;;;;;;;14.10;8.93;;;;;;;14.16;86.78;101611.22;5057274;28;20029;-73
2022/10/30 02:06:55;;;;;;;16.67;9.70;;;;;;;14.12;86.84;101620.28;5033398;28;20032;-75
2022/10/30 02:09:21;;;;;;;14.77;10.25;;;;;;;14.04;87.26;101620.91;5033623;28;20040;-76
2022/10/30 02:11:48;;;;;;;14.05;7.97;;;;;;;14.09;86.79;101621.34;5047280;28;20082;-73
2022/10/30 02:14:28;;;;;;;14.13;7.43;;;;;;;14.09;86.41;101621.34;5043006;28;20049;-73
2022/10/30 02:16:57;;;;;;;15.27;8.35;;;;;;;14.07;86.96;101623.28;5043908;28;20526;-73
2022/10/30 02:19:22;;;;;;;17.08;10.18;;;;;;;14.03;87.64;101631.47;5059491;28;20039;-73
2022/10/30 02:21:49;;;;;;;15.82;7.70;;;;;;;14.01;87.26;101622.97;5051530;28;20028;-74
2022/10/30 02:24:15;;;;;;;16.60;9.27;;;;;;;14.03;87.53;101632.31;5022179;28;20052;-73
2022/10/30 02:26:40;;;;;;;13.63;7.75;;;;;;;14.07;87.37;101625.06;5044201;28;20489;-73
2022/10/30 02:29:05;;;;;;;18.73;8.73;;;;;;;14.05;87.45;101624.38;5043984;28;20078;-74
2022/10/30 02:31:31;;;;;;;15.98;9.93;;;;;;;13.98;87.77;101618.00;5043703;28;20103;-73
2022/10/30 02:33:56;;;;;;;15.50;8.18;;;;;;;13.99;87.64;101617.03;5045046;28;20043;-73
2022/10/30 02:36:21;;;;;;;14.32;8.73;;;;;;;14.01;87.42;101625.56;5029117;28;20116;-73
2022/10/30 02:38:47;;;;;;;14.95;8.98;;;;;;;13.98;87.53;101628.44;5026829;28;20036;-73
2022/10/30 02:41:12;;;;;;;13.85;7.80;;;;;;;14.01;87.60;101629.00;5045071;28;20036;-72
2022/10/30 02:43:38;;;;;;;16.42;9.65;;;;;;;13.99;87.74;101625.72;5031990;28;20029;-72
2022/10/30 02:46:04;;;;;;;15.30;8.35;;;;;;;13.92;87.65;101618.50;5044962;28;20040;-74
2022/10/30 02:48:29;;;;;;;16.73;10.13;;;;;;;13.93;87.99;101625.38;5046615;28;20033;-73
2022/10/30 02:50:59;;;;;;;13.20;7.70;;;;;;;13.99;87.84;101636.16;5026784;28;20115;-74
2022/10/30 02:53:25;;;;;;;16.00;7.95;;;;;;;13.95;87.87;101628.69;5041883;28;20112;-73
2022/10/30 02:55:50;;;;;;;21.05;11.98;;;;;;;13.90;88.25;101636.91;5039779;28;20171;-73
2022/10/30 02:58:16;;;;;;;14.77;8.18;;;;;;;13.94;87.94;101633.09;5038656;28;20497;-75
2022/10/30 03:00:41;;;;;;;20.83;11.18;;;;;;;13.90;88.53;101636.06;5033225;28;20472;-74
2022/10/30 03:03:06;;;;;;;17.67;9.50;;;;;;;13.91;88.40;101630.72;5039464;28;20444;-73
2022/10/30 03:05:32;;;;;;;17.17;9.60;;;;;;;13.92;88.12;101634.16;5032371;28;20079;-73
2022/10/30 03:07:57;;;;;;;19.75;9.50;;;;;;;13.92;88.51;101634.16;5017621;28;20111;-73
2022/10/30 03:10:22;;;;;;;14.60;8.35;;;;;;;13.90;88.41;101623.84;5053723;28;20061;-73
2022/10/30 03:12:48;;;;;;;17.90;8.45;;;;;;;13.92;88.17;101628.94;5038225;28;20024;-73
2022/10/30 03:15:13;;;;;;;16.95;10.15;;;;;;;13.88;88.66;101632.75;5049153;28;20496;-76
2022/10/30 03:17:38;;;;;;;19.92;9.27;;;;;;;13.91;88.66;101637.72;5044849;28;20559;-74
2022/10/30 03:20:04;;;;;;;16.30;10.55;;;;;;;13.86;88.99;101639.88;5025013;28;20465;-73
2022/10/30 03:22:30;;;;;;;15.88;8.25;;;;;;;13.85;88.56;101622.59;5042433;28;20039;-73
2022/10/30 03:24:55;;;;;;;14.77;9.55;;;;;;;13.87;88.52;101641.53;5025999;28;20362;-73
2022/10/30 03:27:20;;;;;;;17.20;8.98;;;;;;;13.88;88.57;101637.97;5040857;28;20040;-73
2022/10/30 03:29:46;;;;;;;18.77;9.68;;;;;;;13.86;88.82;101639.88;5042984;28;20029;-77
2022/10/30 03:32:11;;;;;;;16.15;9.48;;;;;;;13.84;89.12;101636.59;5025268;28;20388;-72
2022/10/30 03:34:37;;;;;;;17.25;8.90;;;;;;;13.81;89.17;101627.22;5030730;28;20033;-73
2022/10/30 03:37:03;;;;;;;17.55;9.07;;;;;;;13.84;89.03;101644.41;5040125;28;20433;-73
2022/10/30 03:39:29;;;;;;;16.17;9.18;;;;;;;13.83;89.21;101640.97;5037559;28;20025;-73
2022/10/30 03:41:54;;;;;;;14.75;8.90;;;;;;;13.79;88.95;101629.94;5044292;28;20468;-73
2022/10/30 03:44:20;;;;;;;14.52;8.60;;;;;;;13.80;88.88;101629.00;5036531;28;20032;-72
2022/10/30 03:46:45;;;;;;;19.33;9.20;;;;;;;13.75;89.22;101631.16;5031909;28;20029;-73
2022/10/30 03:49:10;;;;;;;16.15;10.35;;;;;;;13.70;89.42;101638.53;5038119;28;20107;-73
2022/10/30 03:51:36;;;;;;;17.52;11.13;;;;;;;13.70;89.36;101640.31;5034413;28;20524;-72
2022/10/30 03:54:01;;;;;;;17.70;9.82;;;;;;;13.68;89.48;101637.81;5044946;28;20469;-73
2022/10/30 03:56:26;;;;;;;16.63;9.32;;;;;;;13.74;89.50;101632.09;5037676;28;20524;-73
2022/10/30 03:58:52;;;;;;;15.77;9.70;;;;;;;13.71;89.82;101642.81;5051642;28;20124;-73
2022/10/30 04:01:17;;;;;;;16.50;8.73;;;;;;;13.69;89.90;101639.47;5044794;28;20408;-73
2022/10/30 04:03:42;;;;;;;18.70;10.75;;;;;;;13.67;89.55;101646.59;5042279;28;20035;-77
2022/10/30 04:06:08;;;;;;;13.52;8.45;;;;;;;13.69;89.47;101649.91;5036789;28;20416;-72
2022/10/30 04:08:33;;;;;;;17.90;10.10;;;;;;;13.66;89.88;101654.56;5048406;28;20071;-74
2022/10/30 04:10:59;;;;;;;17.00;9.57;;;;;;;13.64;89.67;101652.06;5025754;28;20454;-73
2022/10/30 04:13:24;;;;;;;16.85;8.40;;;;;;;13.60;89.78;101650.66;5042928;28;20028;-73
2022/10/30 04:15:50;;;;;;;16.92;8.43;;;;;;;13.59;89.82;101662.06;5043456;28;20049;-73
2022/10/30 04:18:16;;;;;;;17.92;8.88;;;;;;;13.57;90.00;101661.34;5043670;28;20024;-73
2022/10/30 04:20:42;;;;;;;17.30;9.82;;;;;;;13.51;90.48;101661.84;5049413;28;20757;-73
2022/10/30 04:23:13;;;;;;;16.92;8.20;;;;;;;13.51;90.44;101661.84;5040463;28;20119;-73
2022/10/30 04:25:39;;;;;;;16.88;9.23;;;;;;;13.52;90.55;101653.06;5043281;28;20522;-72
2022/10/30 04:28:04;;;;;;;18.67;9.98;;;;;;;13.49;90.45;101659.34;5046672;28;20107;-73
2022/10/30 04:30:34;;;;;;;15.68;8.65;;;;;;;13.45;90.14;101646.69;5046287;28;20487;-73
2022/10/30 04:33:00;;;;;;;15.10;10.95;;;;;;;13.39;90.60;101653.22;5037913;28;20028;-73
2022/10/30 04:35:28;;;;;;;16.58;8.30;;;;;;;13.47;90.66;101647.38;5040004;28;20029;-72
2022/10/30 04:37:55;;;;;;;15.43;10.13;;;;;;;13.38;90.56;101637.72;5048328;28;20465;-73
2022/10/30 04:40:23;;;;;;;17.52;10.40;;;;;;;13.40;90.95;101638.41;5047186;28;20021;-73
2022/10/30 04:42:49;;;;;;;19.60;10.75;;;;;;;13.36;90.68;101647.41;5047210;28;20473;-76
2022/10/30 04:45:15;;;;;;;15.15;9.65;;;;;;;13.38;90.90;101632.50;5047621;28;20064;-76
2022/10/30 04:47:40;;;;;;;18.80;8.95;;;;;;;13.39;90.74;101631.56;5035566;28;20047;-75
2022/10/30 04:50:06;;;;;;;16.77;9.30;;;;;;;13.35;90.86;101623.13;5052555;28;20468;-73
2022/10/30 04:52:31;;;;;;;17.67;9.90;;;;;;;13.29;90.73;101619.25;5051375;28;20515;-72
2022/10/30 04:54:57;;;;;;;13.82;9.25;;;;;;;13.28;90.48;101620.22;5047429;28;20056;-73
2022/10/30 04:57:22;;;;;;;16.85;10.55;;;;;;;13.17;90.70;101625.41;5027298;28;20036;-72
2022/10/30 04:59:48;;;;;;;18.40;7.65;;;;;;;13.21;90.98;101611.22;5041609;28;20040;-73
2022/10/30 05:02:13;;;;;;;18.83;8.80;;;;;;;13.22;90.41;101620.69;5049846;28;20029;-73
2022/10/30 05:04:38;;;;;;;14.50;9.10;;;;;;;13.21;91.12;101607.81;5044206;28;20029;-72
2022/10/30 05:07:04;;;;;;;15.88;8.60;;;;;;;13.20;90.87;101617.38;5034587;28;20518;-73
2022/10/30 05:09:29;;;;;;;13.73;9.18;;;;;;;13.20;91.00;101622.59;5033559;28;20417;-74
2022/10/30 05:11:54;;;;;;;14.18;8.25;;;;;;;13.19;91.11;101625.28;5040115;28;20029;-72
2022/10/30 05:14:20;;;;;;;16.75;9.05;;;;;;;13.22;91.43;101623.31;5035053;28;20057;-73
2022/10/30 05:16:45;;;;;;;18.45;8.73;;;;;;;13.21;91.32;101628.66;5046129;28;20110;-73
2022/10/30 05:19:10;;;;;;;18.42;8.35;;;;;;;13.15;91.29;101619.50;5045770;28;20028;-73
2022/10/30 05:21:36;;;;;;;15.75;8.65;;;;;;;13.20;91.39;101616.53;5041195;28;20454;-73
2022/10/30 05:24:01;;;;;;;17.55;8.82;;;;;;;13.16;91.42;101620.34;5052913;28;20028;-73
2022/10/30 05:26:27;;;;;;;13.85;8.85;;;;;;;13.16;91.67;101628.97;5051680;28;20033;-72
2022/10/30 05:28:52;;;;;;;15.30;8.82;;;;;;;13.18;92.13;101640.09;5034863;28;20039;-73
2022/10/30 05:31:18;;;;;;;12.38;8.30;;;;;;;13.12;92.16;101635.38;5033780;28;20017;-73
2022/10/30 05:33:43;;;;;;;18.73;9.00;;;;;;;13.08;92.14;101644.41;5031716;28;20632;-73
2022/10/30 05:36:08;;;;;;;13.40;7.88;;;;;;;13.01;91.52;101638.00;5054967;28;20021;-73
2022/10/30 05:38:34;;;;;;;14.07;8.25;;;;;;;12.98;91.99;101648.66;5048418;28;20484;-73
2022/10/30 05:40:59;;;;;;;14.77;8.02;;;;;;;12.92;92.29;101639.56;5057339;28;20575;-72
2022/10/30 05:43:24;;;;;;;17.77;9.13;;;;;;;12.85;92.16;101637.56;5047976;28;20028;-72
2022/10/30 05:45:50;;;;;;;15.90;12.38;;;;;;;12.65;92.73;101639.94;5045995;28;20028;-73
2022/10/30 05:48:15;;;;;;;16.45;8.27;;;;;;;12.76;93.09;101639.09;5051374;28;20609;-73
2022/10/30 05:50:40;;;;;;;14.65;9.07;;;;;;;12.74;93.12;101647.03;5051460;28;20025;-73
2022/10/30 05:53:06;;;;;;;14.90;7.43;;;;;;;12.68;91.66;101647.50;5049332;28;20025;-72
2022/10/30 05:55:32;;;;;;;15.65;8.00;;;;;;;12.65;92.54;101646.91;5048786;28;20035;-73
2022/10/30 05:58:02;;;;;;;19.05;8.95;;;;;;;12.65;92.61;101647.72;5045097;28;20042;-73
2022/10/30 06:00:30;;;;;;;14.45;8.20;;;;;;;12.63;93.06;101644.44;5031180;28;20029;-75
2022/10/30 06:03:04;;;;;;;14.88;9.27;;;;;;;12.59;93.41;101635.19;5033579;28;20171;-77
2022/10/30 06:05:31;;;;;;;15.75;8.75;;;;;;;12.58;93.21;101636.16;5039481;28;20025;-72
2022/10/30 06:07:56;;;;;;;14.20;8.50;;;;;;;12.59;93.13;101637.81;5028311;28;20128;-74
2022/10/30 06:10:22;;;;;;;16.17;8.60;;;;;;;12.59;93.69;101643.00;5061118;28;20127;-73
2022/10/30 06:12:59;;;;;;;16.83;8.35;;;;;;;12.52;93.54;101636.63;5037762;28;20116;-73
2022/10/30 06:15:25;;;;;;;16.15;8.15;;;;;;;12.48;93.50;101636.00;5045595;28;20037;-75
2022/10/30 06:17:50;;;;;;;16.13;8.57;;;;;;;12.49;93.37;101644.66;5049978;28;20039;-72
2022/10/30 06:20:17;;;;;;;13.57;8.68;;;;;;;12.47;92.92;101633.53;5032281;28;20373;-73
2022/10/30 06:22:53;;;;;;;13.13;8.07;;;;;;;12.52;93.54;101636.63;5045093;28;20417;-73
2022/10/30 06:25:18;;;;;;;15.77;9.55;;;;;;;12.45;93.83;101638.88;5044529;28;20453;-73
2022/10/30 06:27:44;;;;;;;18.38;9.77;;;;;;;12.44;93.71;101641.56;5044755;28;20031;-72
2022/10/30 06:30:09;;;;;;;20.67;9.10;;;;;;;12.43;93.78;101622.53;5050590;28;20090;-72
2022/10/30 06:32:35;;;;;;;16.88;8.32;;;;;;;12.48;93.85;101627.38;5045562;28;20041;-73
2022/10/30 06:35:00;;;;;;;20.35;8.68;;;;;;;12.49;93.65;101626.44;5034691;28;20416;-76
2022/10/30 06:37:25;;;;;;;13.68;7.70;;;;;;;12.46;93.41;101629.28;5033342;28;20109;-72
2022/10/30 06:39:51;;;;;;;17.35;8.65;;;;;;;12.46;93.85;101619.72;5045738;28;20055;-73
2022/10/30 06:42:16;;;;;;;11.15;7.13;;;;;;;12.44;93.79;101623.34;5032196;28;20469;-73
2022/10/30 06:44:41;;;;;;;15.45;8.52;;;;;;;12.41;94.28;101618.41;5036798;28;20070;-73
2022/10/30 06:47:07;;;;;;;18.73;8.80;;;;;;;12.34;94.34;101617.22;5032688;28;20033;-73
2022/10/30 06:49:32;;;;;;;17.85;8.43;;;;;;;12.40;94.10;101627.97;5038274;28;20033;-72
2022/10/30 06:51:57;;;;;;;24.27;8.52;;;;;;;12.36;94.00;101631.75;5047052;28;20040;-73
2022/10/30 06:54:23;;;;;;;13.65;7.97;;;;;;;12.35;94.69;101637.09;5035162;28;20020;-73
2022/10/30 06:56:49;;;;;;;19.92;8.93;;;;;;;12.38;95.02;101629.03;5030744;28;20041;-74
2022/10/30 06:59:14;;;;;;;14.27;8.32;;;;;;;12.38;94.14;101634.22;5041140;28;20434;-73
2022/10/30 07:01:40;;;;;;;19.85;9.15;;;;;;;12.36;93.86;101641.34;5036579;28;20078;-73
2022/10/30 07:04:05;;;;;;;16.30;9.18;;;;;;;12.38;94.79;101629.84;5056830;28;20141;-74
2022/10/30 07:06:30;;;;;;;18.05;8.70;;;;;;;12.39;94.03;101634.13;5045928;28;20072;-72
2022/10/30 07:08:56;;;;;;;15.00;8.63;;;;;;;12.34;94.65;101619.81;5058004;28;20031;-73
2022/10/30 07:11:21;;;;;;;14.45;9.20;;;;;;;12.38;94.94;101623.81;5045475;28;20025;-73
2022/10/30 07:13:47;;;;;;;13.25;7.57;;;;;;;12.38;94.50;101623.81;5031131;28;20048;-73
2022/10/30 07:16:12;;;;;;;15.07;8.32;;;;;;;12.36;94.22;101623.13;5042475;28;20064;-73
2022/10/30 07:18:37;;;;;;;16.17;8.70;;;;;;;12.34;94.58;101632.81;5034441;28;20711;-73
2022/10/30 07:21:03;;;;;;;15.80;8.25;;;;;;;12.35;94.49;101640.50;5045981;28;20155;-74
2022/10/30 07:23:28;;;;;;;16.45;8.88;;;;;;;12.35;94.75;101634.47;5039727;28;20055;-73
2022/10/30 07:25:53;;;;;;;13.95;8.25;;;;;;;12.35;94.12;101634.47;5038018;28;20115;-75
2022/10/30 07:28:19;;;;;;;15.70;9.32;;;;;;;12.31;95.11;101639.06;5042200;28;20411;-73
2022/10/30 07:30:44;;;;;;;17.45;8.02;;;;;;;12.33;94.54;101636.34;5026170;28;20552;-73
2022/10/30 07:33:09;;;;;;;20.50;9.05;;;;;;;12.32;95.61;101634.69;5040237;28;20460;-72
2022/10/30 07:35:35;;;;;;;19.50;9.48;;;;;;;12.30;95.11;101637.44;5041976;28;20483;-72
2022/10/30 07:38:05;;;;;;;15.75;8.90;;;;;;;12.35;95.61;101639.69;5038379;28;20029;-77
2022/10/30 07:40:32;;;;;;;12.85;7.97;;;;;;;12.39;95.54;101648.91;5047752;28;20086;-72
2022/10/30 07:42:59;;;;;;;12.75;8.63;;;;;;;12.37;95.50;101642.97;5050455;28;20508;-72
2022/10/30 07:45:25;;;;;;;21.00;9.15;;;;;;;12.37;95.99;101637.78;5044148;28;20083;-73
2022/10/30 07:47:50;;;;;;;17.13;8.82;;;;;;;12.35;95.93;101634.47;5054794;28;20436;-73
2022/10/30 07:50:16;;;;;;;15.50;8.90;;;;;;;12.35;95.86;101639.69;5023783;28;20532;-73
2022/10/30 07:52:41;;;;;;;18.98;9.45;;;;;;;12.35;96.67;101635.31;5037960;28;20433;-73
2022/10/30 07:55:07;;;;;;;17.17;9.32;;;;;;;12.39;96.04;101635.91;5035408;28;20462;-73
2022/10/30 07:57:37;;;;;;;15.52;9.25;;;;;;;12.41;96.01;101624.44;5040591;28;20457;-72
2022/10/30 08:00:04;;;;;;;15.30;9.13;;;;;;;12.40;96.23;101622.78;5049653;28;20532;-73
2022/10/30 08:02:30;;;;;;;19.55;10.43;;;;;;;12.42;96.59;101614.84;5045887;28;20621;-73
2022/10/30 08:04:55;;;;;;;15.65;10.32;;;;;;;12.46;96.62;101608.47;5046274;28;20037;-73
2022/10/30 08:07:20;;;;;;;20.15;9.05;;;;;;;12.51;96.84;101619.34;5039224;28;20060;-73
2022/10/30 08:09:46;;;;;;;20.08;10.30;;;;;;;12.54;97.32;101623.47;5038763;28;20140;-74
2022/10/30 08:12:12;;;;;;;20.80;10.10;;;;;;;12.57;97.28;101629.28;5029685;28;20052;-73
2022/10/30 08:14:37;;;;;;;15.50;9.82;;;;;;;12.60;97.37;101629.03;5042898;28;20081;-72
2022/10/30 08:17:04;;;;;;;18.45;10.57;;;;;;;12.65;97.55;101631.28;5056072;28;20036;-72
2022/10/30 08:19:29;;;;;;;20.92;11.98;;;;;;;12.70;97.19;101635.19;5050260;28;20587;-73
2022/10/30 08:21:55;;;;;;;18.67;10.55;;;;;;;12.68;97.63;101616.28;5040335;28;20038;-74
2022/10/30 08:24:21;;;;;;;17.77;10.82;;;;;;;12.75;97.52;101627.84;5041470;28;20021;-74
2022/10/30 08:26:46;;;;;;;16.75;10.90;;;;;;;12.82;97.13;101622.16;5041230;28;20091;-73
2022/10/30 08:29:11;;;;;;;17.13;10.63;;;;;;;12.87;97.53;101622.66;5039608;28;20508;-72
2022/10/30 08:31:37;;;;;;;19.90;9.77;;;;;;;12.93;97.46;101609.13;5033029;28;20032;-73
2022/10/30 08:34:04;;;;;;;17.02;10.57;;;;;;;12.96;97.49;101608.88;5040480;28;20485;-73
2022/10/30 08:36:29;;;;;;;17.20;11.18;;;;;;;12.98;97.39;101601.78;5026146;28;20032;-74
2022/10/30 08:38:55;;;;;;;18.70;11.02;;;;;;;13.05;97.27;101620.34;5039548;28;20029;-72
2022/10/30 08:41:20;;;;;;;17.10;10.48;;;;;;;13.07;97.30;101619.28;5037890;28;20509;-73
2022/10/30 08:43:47;;;;;;;21.27;11.02;;;;;;;13.18;97.49;101639.25;5041121;28;20102;-74
2022/10/30 08:46:12;;;;;;;18.17;11.55;;;;;;;13.18;97.25;101629.66;5035686;28;20145;-73
2022/10/30 08:48:37;;;;;;;16.83;11.43;;;;;;;13.24;97.24;101624.00;5038537;28;20669;-72
2022/10/30 08:51:03;;;;;;;17.75;12.27;;;;;;;13.33;96.92;101638.09;5043168;28;20044;-72
2022/10/30 08:53:28;;;;;;;21.65;13.35;;;;;;;13.37;96.72;101628.25;5046731;28;20048;-75
2022/10/30 08:55:53;;;;;;;17.58;12.88;;;;;;;13.45;97.13;101638.88;5049208;28;20426;-74
2022/10/30 08:58:19;;;;;;;19.63;11.73;;;;;;;13.48;97.22;101620.41;5041751;28;20128;-75
2022/10/30 09:00:44;;;;;;;16.60;12.68;;;;;;;13.55;97.07;101618.94;5040783;28;20128;-74
2022/10/30 09:03:09;;;;;;;21.20;12.25;;;;;;;13.66;96.76;101624.09;5037909;28;20056;-73
2022/10/30 09:05:38;;;;;;;20.75;11.57;;;;;;;13.73;96.44;101627.84;5034484;28;20075;-73
2022/10/30 09:08:03;;;;;;;20.27;12.32;;;;;;;13.76;96.18;101618.94;5038304;28;20040;-73
2022/10/30 09:10:29;;;;;;;21.15;14.98;;;;;;;13.85;96.31;101627.78;5048417;28;20045;-74
2022/10/30 09:12:55;;;;;;;16.98;13.23;;;;;;;13.90;96.36;101621.25;5033378;28;20116;-74
2022/10/30 09:15:21;;;;;;;16.90;12.52;;;;;;;13.93;95.63;101620.16;5040341;28;20036;-74
2022/10/30 09:17:46;;;;;;;18.20;13.10;;;;;;;14.05;96.12;101622.59;5043144;28;20120;-74
2022/10/30 09:20:12;;;;;;;18.30;13.35;;;;;;;14.13;96.20;101621.94;5041820;28;20027;-76
2022/10/30 09:22:41;;;;;;;18.08;12.77;;;;;;;14.20;95.67;101622.25;5048560;28;20036;-74
2022/10/30 09:25:06;;;;;;;23.30;12.45;;;;;;;14.24;95.65;101608.00;5041003;28;20025;-73
2022/10/30 09:27:36;;;;;;;24.33;13.85;;;;;;;14.37;95.55;101613.00;5037595;28;20037;-73
2022/10/30 09:30:02;;;;;;;19.98;17.02;;;;;;;14.43;95.85;101609.84;5044808;28;20412;-73
2022/10/30 09:32:27;;;;;;;20.42;11.98;;;;;;;14.51;95.69;101604.84;5046770;28;20033;-74
2022/10/30 09:34:53;;;;;;;21.77;15.20;;;;;;;14.65;95.27;101609.69;5046757;28;20033;-76
2022/10/30 09:37:18;;;;;;;22.30;16.40;;;;;;;14.76;95.65;101600.94;5034343;28;20013;-76
2022/10/30 09:39:43;;;;;;;22.83;14.55;;;;;;;14.79;95.21;101593.66;5044822;28;20035;-76
2022/10/30 09:42:12;;;;;;;18.52;12.75;;;;;;;14.91;94.72;101606.59;5042766;28;20055;-73
2022/10/30 09:44:49;;;;;;;24.52;16.60;;;;;;;14.94;94.38;101601.94;5047027;28;20059;-74
2022/10/30 09:47:27;;;;;;;23.45;16.48;;;;;;;15.07;93.97;101606.91;5041860;28;20500;-74
2022/10/30 09:50:15;;;;;;;20.95;13.15;;;;;;;15.16;94.08;101611.34;5043717;28;20556;-74
2022/10/30 09:52:56;;;;;;;22.20;13.38;;;;;;;15.21;94.25;101611.75;5048493;28;20487;-73
2022/10/30 09:55:49;;;;;;;20.63;17.60;;;;;;;15.32;94.10;101622.09;5048701;28;20046;-73
2022/10/30 09:58:35;;;;;;;23.20;16.42;;;;;;;15.41;93.27;101626.47;5046561;28;20028;-76
2022/10/30 10:01:37;;;;;;;23.10;14.63;;;;;;;15.53;93.68;101634.19;5039549;28;20025;-74
2022/10/30 10:04:31;;;;;;;25.85;19.25;;;;;;;15.79;92.50;101645.78;5051084;28;20374;-74
2022/10/30 10:07:03;;;;;;;25.25;18.75;;;;;;;15.79;92.32;101640.56;5008278;28;20038;-74
2022/10/30 10:09:32;;;;;;;23.42;18.40;;;;;;;15.87;91.04;101638.06;5038307;28;20039;-73
2022/10/30 10:12:12;;;;;;;20.55;13.55;;;;;;;15.92;91.07;101635.84;5037921;28;20021;-74
2022/10/30 10:14:42;;;;;;;23.83;19.20;;;;;;;16.00;90.50;101642.16;5030673;28;20288;-75
2022/10/30 10:17:16;;;;;;;24.13;18.63;;;;;;;16.00;90.19;101642.16;5043235;28;20029;-74
2022/10/30 10:19:56;;;;;;;24.48;19.00;;;;;;;16.06;89.92;101641.63;5023067;28;20449;-74
2022/10/30 10:22:46;;;;;;;23.27;19.65;;;;;;;16.22;90.04;101647.06;5034241;28;20021;-74
2022/10/30 10:25:14;;;;;;;26.45;18.98;;;;;;;16.37;89.07;101648.28;5023920;28;20055;-74
2022/10/30 10:28:04;;;;;;;21.02;15.82;;;;;;;16.42;89.15;101646.06;5041792;28;20035;-75
2022/10/30 10:30:52;;;;;;;23.73;18.77;;;;;;;16.56;89.60;101636.06;5035282;28;20472;-75
2022/10/30 10:33:54;;;;;;;24.17;18.67;;;;;;;16.69;88.66;101633.97;5033376;28;20033;-77
2022/10/30 10:36:38;;;;;;;25.75;17.92;;;;;;;16.81;87.69;101638.06;5041816;28;20493;-74
2022/10/30 10:39:19;;;;;;;24.20;17.45;;;;;;;16.84;87.46;101637.75;5041169;28;20103;-74
2022/10/30 10:42:09;;;;;;;23.17;18.15;;;;;;;16.80;87.56;101627.72;5036520;28;20039;-76
2022/10/30 10:44:53;;;;;;;22.00;17.92;;;;;;;16.82;86.35;101624.00;5035792;28;20078;-74
2022/10/30 10:47:34;;;;;;;20.67;15.98;;;;;;;16.87;86.91;101616.53;5035539;28;20436;-78
2022/10/30 10:50:04;;;;;;;22.92;15.82;;;;;;;17.07;86.98;101622.47;5036919;28;20464;-76
2022/10/30 10:52:41;;;;;;;22.05;16.27;;;;;;;17.12;85.68;101619.41;5032807;28;20375;-74
2022/10/30 10:55:25;;;;;;;23.83;15.38;;;;;;;17.30;85.75;101614.97;5037717;28;20027;-74
2022/10/30 10:57:52;;;;;;;24.17;15.65;;;;;;;17.30;85.33;101617.59;5040095;28;20507;-74
2022/10/30 11:00:22;;;;;;;19.55;15.38;;;;;;;17.31;84.71;101621.88;5038025;28;20040;-74
2022/10/30 11:02:57;;;;;;;20.23;14.25;;;;;;;17.40;84.28;101618.38;5031222;28;20152;-75
2022/10/30 11:05:46;;;;;;;20.60;13.30;;;;;;;17.46;84.13;101623.00;5034261;28;20033;-74
2022/10/30 11:08:30;;;;;;;20.60;13.98;;;;;;;17.58;83.31;101625.41;5022179;28;20030;-76
2022/10/30 11:11:06;;;;;;;18.25;12.70;;;;;;;17.81;83.62;101620.53;5036142;28;20031;-74
2022/10/30 11:13:36;;;;;;;23.05;14.10;;;;;;;17.79;83.53;101623.31;5033807;28;20099;-75
2022/10/30 11:16:15;;;;;;;19.17;12.98;;;;;;;17.90;82.84;101625.69;5031207;28;20079;-74
2022/10/30 11:18:42;;;;;;;21.67;13.20;;;;;;;17.87;82.84;101619.91;5031216;28;20492;-75
2022/10/30 11:21:10;;;;;;;18.80;13.35;;;;;;;17.93;83.04;101617.50;5043473;28;20041;-74